<?xml version="1.0" encoding="UTF-8" ?>
<gpx version="1.1" xmlns:xsi="http://www.w3.org/2001/XMLSchema-instance" 
    xmlns="http://www.topografix.com/GPX/1/1" 
    xsi:schemaLocation="http://www.topografix.com/GPX/1/1 http://www.topografix.com/GPX/1/1/gpx.xsd" 
    creator="Openrunner - https://www.openrunner.com" >	<trk>
						<name>11226828-Balade Verte - Circuit des lavoirs- JOU1</name>
						<trkseg>
					<trkpt lat="46.466740" lon="5.358190">
						<ele>263</ele>
						<time>2020-04-23T16:05:36Z</time>
					</trkpt>
					<trkpt lat="46.466860" lon="5.357880">
						<ele>262</ele>
						<time>2020-04-23T16:06:09Z</time>
					</trkpt>
					<trkpt lat="46.466910" lon="5.357720">
						<ele>261</ele>
						<time>2020-04-23T16:06:25Z</time>
					</trkpt>
					<trkpt lat="46.467300" lon="5.357970">
						<ele>263</ele>
						<time>2020-04-23T16:07:22Z</time>
					</trkpt>
					<trkpt lat="46.467560" lon="5.357990">
						<ele>264</ele>
						<time>2020-04-23T16:07:56Z</time>
					</trkpt>
					<trkpt lat="46.467610" lon="5.357980">
						<ele>264</ele>
						<time>2020-04-23T16:08:03Z</time>
					</trkpt>
					<trkpt lat="46.467870" lon="5.358170">
						<ele>265</ele>
						<time>2020-04-23T16:08:42Z</time>
					</trkpt>
					<trkpt lat="46.468090" lon="5.358400">
						<ele>266</ele>
						<time>2020-04-23T16:09:18Z</time>
					</trkpt>
					<trkpt lat="46.468240" lon="5.358630">
						<ele>267</ele>
						<time>2020-04-23T16:09:47Z</time>
					</trkpt>
					<trkpt lat="46.468350" lon="5.358830">
						<ele>269</ele>
						<time>2020-04-23T16:10:11Z</time>
					</trkpt>
					<trkpt lat="46.468610" lon="5.358680">
						<ele>267</ele>
						<time>2020-04-23T16:10:48Z</time>
					</trkpt>
					<trkpt lat="46.468750" lon="5.358470">
						<ele>265</ele>
						<time>2020-04-23T16:11:15Z</time>
					</trkpt>
					<trkpt lat="46.468820" lon="5.358320">
						<ele>264</ele>
						<time>2020-04-23T16:11:32Z</time>
					</trkpt>
					<trkpt lat="46.468920" lon="5.358150">
						<ele>264</ele>
						<time>2020-04-23T16:11:52Z</time>
					</trkpt>
					<trkpt lat="46.469080" lon="5.358000">
						<ele>264</ele>
						<time>2020-04-23T16:12:18Z</time>
					</trkpt>
					<trkpt lat="46.469260" lon="5.357680">
						<ele>265</ele>
						<time>2020-04-23T16:12:56Z</time>
					</trkpt>
					<trkpt lat="46.469400" lon="5.357590">
						<ele>267</ele>
						<time>2020-04-23T16:13:16Z</time>
					</trkpt>
					<trkpt lat="46.469570" lon="5.357680">
						<ele>269</ele>
						<time>2020-04-23T16:13:40Z</time>
					</trkpt>
					<trkpt lat="46.469670" lon="5.357780">
						<ele>269</ele>
						<time>2020-04-23T16:13:56Z</time>
					</trkpt>
					<trkpt lat="46.469810" lon="5.357970">
						<ele>270</ele>
						<time>2020-04-23T16:14:22Z</time>
					</trkpt>
					<trkpt lat="46.469890" lon="5.358100">
						<ele>270</ele>
						<time>2020-04-23T16:14:38Z</time>
					</trkpt>
					<trkpt lat="46.469980" lon="5.358300">
						<ele>269</ele>
						<time>2020-04-23T16:15:00Z</time>
					</trkpt>
					<trkpt lat="46.470170" lon="5.358120">
						<ele>272</ele>
						<time>2020-04-23T16:15:30Z</time>
					</trkpt>
					<trkpt lat="46.470350" lon="5.357920">
						<ele>276</ele>
						<time>2020-04-23T16:16:01Z</time>
					</trkpt>
					<trkpt lat="46.470440" lon="5.357590">
						<ele>279</ele>
						<time>2020-04-23T16:16:33Z</time>
					</trkpt>
					<trkpt lat="46.470570" lon="5.357600">
						<ele>281</ele>
						<time>2020-04-23T16:16:51Z</time>
					</trkpt>
					<trkpt lat="46.470620" lon="5.357730">
						<ele>280</ele>
						<time>2020-04-23T16:17:04Z</time>
					</trkpt>
					<trkpt lat="46.471530" lon="5.358540">
						<ele>279</ele>
						<time>2020-04-23T16:19:27Z</time>
					</trkpt>
					<trkpt lat="46.471860" lon="5.358540">
						<ele>281</ele>
						<time>2020-04-23T16:20:11Z</time>
					</trkpt>
					<trkpt lat="46.472060" lon="5.358510">
						<ele>282</ele>
						<time>2020-04-23T16:20:37Z</time>
					</trkpt>
					<trkpt lat="46.472290" lon="5.358390">
						<ele>284</ele>
						<time>2020-04-23T16:21:10Z</time>
					</trkpt>
					<trkpt lat="46.472490" lon="5.358180">
						<ele>285</ele>
						<time>2020-04-23T16:21:43Z</time>
					</trkpt>
					<trkpt lat="46.473190" lon="5.358870">
						<ele>279</ele>
						<time>2020-04-23T16:23:36Z</time>
					</trkpt>
					<trkpt lat="46.473430" lon="5.359080">
						<ele>278</ele>
						<time>2020-04-23T16:24:13Z</time>
					</trkpt>
					<trkpt lat="46.473810" lon="5.359520">
						<ele>277</ele>
						<time>2020-04-23T16:25:18Z</time>
					</trkpt>
					<trkpt lat="46.474120" lon="5.359870">
						<ele>278</ele>
						<time>2020-04-23T16:26:11Z</time>
					</trkpt>
					<trkpt lat="46.474420" lon="5.360000">
						<ele>280</ele>
						<time>2020-04-23T16:26:52Z</time>
					</trkpt>
					<trkpt lat="46.474620" lon="5.360040">
						<ele>281</ele>
						<time>2020-04-23T16:27:19Z</time>
					</trkpt>
					<trkpt lat="46.474770" lon="5.359970">
						<ele>282</ele>
						<time>2020-04-23T16:27:40Z</time>
					</trkpt>
					<trkpt lat="46.474920" lon="5.359500">
						<ele>281</ele>
						<time>2020-04-23T16:28:28Z</time>
					</trkpt>
					<trkpt lat="46.474910" lon="5.359210">
						<ele>280</ele>
						<time>2020-04-23T16:28:55Z</time>
					</trkpt>
					<trkpt lat="46.474910" lon="5.359100">
						<ele>279</ele>
						<time>2020-04-23T16:29:05Z</time>
					</trkpt>
					<trkpt lat="46.474920" lon="5.358970">
						<ele>278</ele>
						<time>2020-04-23T16:29:17Z</time>
					</trkpt>
					<trkpt lat="46.475100" lon="5.358290">
						<ele>274</ele>
						<time>2020-04-23T16:30:24Z</time>
					</trkpt>
					<trkpt lat="46.475110" lon="5.358080">
						<ele>272</ele>
						<time>2020-04-23T16:30:43Z</time>
					</trkpt>
					<trkpt lat="46.475090" lon="5.357680">
						<ele>270</ele>
						<time>2020-04-23T16:31:20Z</time>
					</trkpt>
					<trkpt lat="46.475100" lon="5.357430">
						<ele>269</ele>
						<time>2020-04-23T16:31:43Z</time>
					</trkpt>
					<trkpt lat="46.475150" lon="5.357240">
						<ele>269</ele>
						<time>2020-04-23T16:32:02Z</time>
					</trkpt>
					<trkpt lat="46.475220" lon="5.356950">
						<ele>268</ele>
						<time>2020-04-23T16:32:30Z</time>
					</trkpt>
					<trkpt lat="46.475260" lon="5.356780">
						<ele>267</ele>
						<time>2020-04-23T16:32:46Z</time>
					</trkpt>
					<trkpt lat="46.475280" lon="5.356610">
						<ele>267</ele>
						<time>2020-04-23T16:33:02Z</time>
					</trkpt>
					<trkpt lat="46.475290" lon="5.356200">
						<ele>266</ele>
						<time>2020-04-23T16:33:40Z</time>
					</trkpt>
					<trkpt lat="46.475310" lon="5.355980">
						<ele>265</ele>
						<time>2020-04-23T16:34:00Z</time>
					</trkpt>
					<trkpt lat="46.475460" lon="5.355170">
						<ele>261</ele>
						<time>2020-04-23T16:35:17Z</time>
					</trkpt>
					<trkpt lat="46.475580" lon="5.355230">
						<ele>261</ele>
						<time>2020-04-23T16:35:34Z</time>
					</trkpt>
					<trkpt lat="46.475680" lon="5.355320">
						<ele>260</ele>
						<time>2020-04-23T16:35:50Z</time>
					</trkpt>
					<trkpt lat="46.475750" lon="5.355490">
						<ele>261</ele>
						<time>2020-04-23T16:36:08Z</time>
					</trkpt>
					<trkpt lat="46.475950" lon="5.355750">
						<ele>261</ele>
						<time>2020-04-23T16:36:44Z</time>
					</trkpt>
					<trkpt lat="46.476060" lon="5.355900">
						<ele>260</ele>
						<time>2020-04-23T16:37:04Z</time>
					</trkpt>
					<trkpt lat="46.476100" lon="5.355980">
						<ele>260</ele>
						<time>2020-04-23T16:37:13Z</time>
					</trkpt>
					<trkpt lat="46.476170" lon="5.356270">
						<ele>261</ele>
						<time>2020-04-23T16:37:42Z</time>
					</trkpt>
					<trkpt lat="46.476250" lon="5.356340">
						<ele>261</ele>
						<time>2020-04-23T16:37:54Z</time>
					</trkpt>
					<trkpt lat="46.476240" lon="5.356430">
						<ele>261</ele>
						<time>2020-04-23T16:38:02Z</time>
					</trkpt>
					<trkpt lat="46.476240" lon="5.356480">
						<ele>261</ele>
						<time>2020-04-23T16:38:07Z</time>
					</trkpt>
					<trkpt lat="46.476210" lon="5.356630">
						<ele>262</ele>
						<time>2020-04-23T16:38:21Z</time>
					</trkpt>
					<trkpt lat="46.476220" lon="5.356740">
						<ele>262</ele>
						<time>2020-04-23T16:38:32Z</time>
					</trkpt>
					<trkpt lat="46.476230" lon="5.356810">
						<ele>262</ele>
						<time>2020-04-23T16:38:38Z</time>
					</trkpt>
					<trkpt lat="46.476270" lon="5.356850">
						<ele>262</ele>
						<time>2020-04-23T16:38:45Z</time>
					</trkpt>
					<trkpt lat="46.476330" lon="5.356890">
						<ele>262</ele>
						<time>2020-04-23T16:38:53Z</time>
					</trkpt>
					<trkpt lat="46.476720" lon="5.357080">
						<ele>262</ele>
						<time>2020-04-23T16:39:48Z</time>
					</trkpt>
					<trkpt lat="46.476930" lon="5.357240">
						<ele>263</ele>
						<time>2020-04-23T16:40:20Z</time>
					</trkpt>
					<trkpt lat="46.476980" lon="5.357170">
						<ele>263</ele>
						<time>2020-04-23T16:40:29Z</time>
					</trkpt>
					<trkpt lat="46.477060" lon="5.356940">
						<ele>262</ele>
						<time>2020-04-23T16:40:53Z</time>
					</trkpt>
					<trkpt lat="46.477130" lon="5.356800">
						<ele>262</ele>
						<time>2020-04-23T16:41:09Z</time>
					</trkpt>
					<trkpt lat="46.477220" lon="5.356660">
						<ele>263</ele>
						<time>2020-04-23T16:41:26Z</time>
					</trkpt>
					<trkpt lat="46.477280" lon="5.356580">
						<ele>262</ele>
						<time>2020-04-23T16:41:37Z</time>
					</trkpt>
					<trkpt lat="46.477360" lon="5.356540">
						<ele>262</ele>
						<time>2020-04-23T16:41:49Z</time>
					</trkpt>
					<trkpt lat="46.477500" lon="5.356550">
						<ele>263</ele>
						<time>2020-04-23T16:42:07Z</time>
					</trkpt>
					<trkpt lat="46.477870" lon="5.356620">
						<ele>263</ele>
						<time>2020-04-23T16:42:57Z</time>
					</trkpt>
					<trkpt lat="46.478030" lon="5.356660">
						<ele>263</ele>
						<time>2020-04-23T16:43:19Z</time>
					</trkpt>
					<trkpt lat="46.478650" lon="5.356850">
						<ele>260</ele>
						<time>2020-04-23T16:44:43Z</time>
					</trkpt>
					<trkpt lat="46.478700" lon="5.356790">
						<ele>260</ele>
						<time>2020-04-23T16:44:52Z</time>
					</trkpt>
					<trkpt lat="46.478740" lon="5.356680">
						<ele>259</ele>
						<time>2020-04-23T16:45:03Z</time>
					</trkpt>
					<trkpt lat="46.478780" lon="5.355210">
						<ele>247</ele>
						<time>2020-04-23T16:47:19Z</time>
					</trkpt>
					<trkpt lat="46.478810" lon="5.354600">
						<ele>242</ele>
						<time>2020-04-23T16:48:15Z</time>
					</trkpt>
					<trkpt lat="46.478850" lon="5.354070">
						<ele>239</ele>
						<time>2020-04-23T16:49:04Z</time>
					</trkpt>
					<trkpt lat="46.478870" lon="5.353920">
						<ele>238</ele>
						<time>2020-04-23T16:49:18Z</time>
					</trkpt>
					<trkpt lat="46.478880" lon="5.353660">
						<ele>238</ele>
						<time>2020-04-23T16:49:42Z</time>
					</trkpt>
					<trkpt lat="46.478880" lon="5.353480">
						<ele>237</ele>
						<time>2020-04-23T16:49:58Z</time>
					</trkpt>
					<trkpt lat="46.478850" lon="5.353300">
						<ele>236</ele>
						<time>2020-04-23T16:50:15Z</time>
					</trkpt>
					<trkpt lat="46.478800" lon="5.353150">
						<ele>236</ele>
						<time>2020-04-23T16:50:31Z</time>
					</trkpt>
					<trkpt lat="46.478500" lon="5.352650">
						<ele>234</ele>
						<time>2020-04-23T16:51:32Z</time>
					</trkpt>
					<trkpt lat="46.478440" lon="5.352520">
						<ele>233</ele>
						<time>2020-04-23T16:51:46Z</time>
					</trkpt>
					<trkpt lat="46.478400" lon="5.352380">
						<ele>233</ele>
						<time>2020-04-23T16:52:00Z</time>
					</trkpt>
					<trkpt lat="46.478390" lon="5.352270">
						<ele>233</ele>
						<time>2020-04-23T16:52:10Z</time>
					</trkpt>
					<trkpt lat="46.478420" lon="5.352110">
						<ele>232</ele>
						<time>2020-04-23T16:52:25Z</time>
					</trkpt>
					<trkpt lat="46.478530" lon="5.351580">
						<ele>232</ele>
						<time>2020-04-23T16:53:16Z</time>
					</trkpt>
					<trkpt lat="46.478820" lon="5.350740">
						<ele>233</ele>
						<time>2020-04-23T16:54:42Z</time>
					</trkpt>
					<trkpt lat="46.479120" lon="5.350110">
						<ele>233</ele>
						<time>2020-04-23T16:55:53Z</time>
					</trkpt>
					<trkpt lat="46.479200" lon="5.350000">
						<ele>233</ele>
						<time>2020-04-23T16:56:08Z</time>
					</trkpt>
					<trkpt lat="46.479300" lon="5.349930">
						<ele>232</ele>
						<time>2020-04-23T16:56:22Z</time>
					</trkpt>
					<trkpt lat="46.479450" lon="5.349900">
						<ele>230</ele>
						<time>2020-04-23T16:56:43Z</time>
					</trkpt>
					<trkpt lat="46.479540" lon="5.349900">
						<ele>229</ele>
						<time>2020-04-23T16:56:55Z</time>
					</trkpt>
					<trkpt lat="46.479640" lon="5.349860">
						<ele>228</ele>
						<time>2020-04-23T16:57:08Z</time>
					</trkpt>
					<trkpt lat="46.479720" lon="5.349800">
						<ele>228</ele>
						<time>2020-04-23T16:57:20Z</time>
					</trkpt>
					<trkpt lat="46.479800" lon="5.349690">
						<ele>227</ele>
						<time>2020-04-23T16:57:35Z</time>
					</trkpt>
					<trkpt lat="46.480000" lon="5.349460">
						<ele>227</ele>
						<time>2020-04-23T16:58:09Z</time>
					</trkpt>
					<trkpt lat="46.480050" lon="5.349410">
						<ele>227</ele>
						<time>2020-04-23T16:58:17Z</time>
					</trkpt>
					<trkpt lat="46.480440" lon="5.349900">
						<ele>225</ele>
						<time>2020-04-23T16:59:26Z</time>
					</trkpt>
					<trkpt lat="46.480560" lon="5.350050">
						<ele>225</ele>
						<time>2020-04-23T16:59:47Z</time>
					</trkpt>
					<trkpt lat="46.480880" lon="5.350370">
						<ele>227</ele>
						<time>2020-04-23T17:00:39Z</time>
					</trkpt>
					<trkpt lat="46.481150" lon="5.350640">
						<ele>228</ele>
						<time>2020-04-23T17:01:23Z</time>
					</trkpt>
					<trkpt lat="46.481490" lon="5.350940">
						<ele>230</ele>
						<time>2020-04-23T17:02:16Z</time>
					</trkpt>
					<trkpt lat="46.481820" lon="5.351260">
						<ele>232</ele>
						<time>2020-04-23T17:03:09Z</time>
					</trkpt>
					<trkpt lat="46.482410" lon="5.351840">
						<ele>232</ele>
						<time>2020-04-23T17:04:44Z</time>
					</trkpt>
					<trkpt lat="46.482880" lon="5.352310">
						<ele>231</ele>
						<time>2020-04-23T17:06:00Z</time>
					</trkpt>
					<trkpt lat="46.483010" lon="5.352430">
						<ele>229</ele>
						<time>2020-04-23T17:06:21Z</time>
					</trkpt>
					<trkpt lat="46.483070" lon="5.352410">
						<ele>229</ele>
						<time>2020-04-23T17:06:29Z</time>
					</trkpt>
					<trkpt lat="46.483240" lon="5.352200">
						<ele>228</ele>
						<time>2020-04-23T17:06:59Z</time>
					</trkpt>
					<trkpt lat="46.483320" lon="5.352190">
						<ele>228</ele>
						<time>2020-04-23T17:07:09Z</time>
					</trkpt>
					<trkpt lat="46.483490" lon="5.351990">
						<ele>227</ele>
						<time>2020-04-23T17:07:39Z</time>
					</trkpt>
					<trkpt lat="46.483650" lon="5.351710">
						<ele>228</ele>
						<time>2020-04-23T17:08:12Z</time>
					</trkpt>
					<trkpt lat="46.483860" lon="5.351610">
						<ele>226</ele>
						<time>2020-04-23T17:08:41Z</time>
					</trkpt>
					<trkpt lat="46.484090" lon="5.351380">
						<ele>226</ele>
						<time>2020-04-23T17:09:19Z</time>
					</trkpt>
					<trkpt lat="46.484230" lon="5.351270">
						<ele>226</ele>
						<time>2020-04-23T17:09:40Z</time>
					</trkpt>
					<trkpt lat="46.484330" lon="5.351280">
						<ele>225</ele>
						<time>2020-04-23T17:09:53Z</time>
					</trkpt>
					<trkpt lat="46.484370" lon="5.351200">
						<ele>225</ele>
						<time>2020-04-23T17:10:02Z</time>
					</trkpt>
					<trkpt lat="46.484730" lon="5.351010">
						<ele>224</ele>
						<time>2020-04-23T17:10:54Z</time>
					</trkpt>
					<trkpt lat="46.484740" lon="5.350910">
						<ele>224</ele>
						<time>2020-04-23T17:11:03Z</time>
					</trkpt>
					<trkpt lat="46.484810" lon="5.350780">
						<ele>223</ele>
						<time>2020-04-23T17:11:18Z</time>
					</trkpt>
					<trkpt lat="46.484980" lon="5.350730">
						<ele>222</ele>
						<time>2020-04-23T17:11:41Z</time>
					</trkpt>
					<trkpt lat="46.485300" lon="5.350960">
						<ele>220</ele>
						<time>2020-04-23T17:12:29Z</time>
					</trkpt>
					<trkpt lat="46.485410" lon="5.350930">
						<ele>219</ele>
						<time>2020-04-23T17:12:44Z</time>
					</trkpt>
					<trkpt lat="46.485600" lon="5.350470">
						<ele>217</ele>
						<time>2020-04-23T17:13:33Z</time>
					</trkpt>
					<trkpt lat="46.485280" lon="5.350320">
						<ele>220</ele>
						<time>2020-04-23T17:14:18Z</time>
					</trkpt>
					<trkpt lat="46.485110" lon="5.350190">
						<ele>221</ele>
						<time>2020-04-23T17:14:44Z</time>
					</trkpt>
					<trkpt lat="46.485180" lon="5.349870">
						<ele>221</ele>
						<time>2020-04-23T17:15:14Z</time>
					</trkpt>
					<trkpt lat="46.485220" lon="5.349780">
						<ele>220</ele>
						<time>2020-04-23T17:15:24Z</time>
					</trkpt>
					<trkpt lat="46.485200" lon="5.349660">
						<ele>221</ele>
						<time>2020-04-23T17:15:36Z</time>
					</trkpt>
					<trkpt lat="46.485140" lon="5.349490">
						<ele>222</ele>
						<time>2020-04-23T17:15:53Z</time>
					</trkpt>
					<trkpt lat="46.485170" lon="5.349340">
						<ele>222</ele>
						<time>2020-04-23T17:16:07Z</time>
					</trkpt>
					<trkpt lat="46.485300" lon="5.349070">
						<ele>221</ele>
						<time>2020-04-23T17:16:38Z</time>
					</trkpt>
					<trkpt lat="46.485380" lon="5.348890">
						<ele>220</ele>
						<time>2020-04-23T17:16:57Z</time>
					</trkpt>
					<trkpt lat="46.485390" lon="5.348710">
						<ele>219</ele>
						<time>2020-04-23T17:17:14Z</time>
					</trkpt>
					<trkpt lat="46.485320" lon="5.348480">
						<ele>220</ele>
						<time>2020-04-23T17:17:37Z</time>
					</trkpt>
					<trkpt lat="46.485190" lon="5.348240">
						<ele>221</ele>
						<time>2020-04-23T17:18:05Z</time>
					</trkpt>
					<trkpt lat="46.485030" lon="5.348060">
						<ele>221</ele>
						<time>2020-04-23T17:18:32Z</time>
					</trkpt>
					<trkpt lat="46.485000" lon="5.347860">
						<ele>220</ele>
						<time>2020-04-23T17:18:51Z</time>
					</trkpt>
					<trkpt lat="46.485110" lon="5.347700">
						<ele>218</ele>
						<time>2020-04-23T17:19:12Z</time>
					</trkpt>
					<trkpt lat="46.485310" lon="5.347490">
						<ele>217</ele>
						<time>2020-04-23T17:19:45Z</time>
					</trkpt>
					<trkpt lat="46.485240" lon="5.347360">
						<ele>216</ele>
						<time>2020-04-23T17:20:00Z</time>
					</trkpt>
					<trkpt lat="46.485150" lon="5.347090">
						<ele>215</ele>
						<time>2020-04-23T17:20:27Z</time>
					</trkpt>
					<trkpt lat="46.485180" lon="5.346960">
						<ele>214</ele>
						<time>2020-04-23T17:20:40Z</time>
					</trkpt>
					<trkpt lat="46.484990" lon="5.346070">
						<ele>211</ele>
						<time>2020-04-23T17:22:06Z</time>
					</trkpt>
					<trkpt lat="46.484880" lon="5.345490">
						<ele>213</ele>
						<time>2020-04-23T17:23:01Z</time>
					</trkpt>
					<trkpt lat="46.484830" lon="5.345330">
						<ele>213</ele>
						<time>2020-04-23T17:23:17Z</time>
					</trkpt>
					<trkpt lat="46.484780" lon="5.344930">
						<ele>213</ele>
						<time>2020-04-23T17:23:54Z</time>
					</trkpt>
					<trkpt lat="46.484750" lon="5.344870">
						<ele>213</ele>
						<time>2020-04-23T17:24:01Z</time>
					</trkpt>
					<trkpt lat="46.484650" lon="5.344350">
						<ele>211</ele>
						<time>2020-04-23T17:24:51Z</time>
					</trkpt>
					<trkpt lat="46.484580" lon="5.344190">
						<ele>210</ele>
						<time>2020-04-23T17:25:08Z</time>
					</trkpt>
					<trkpt lat="46.484520" lon="5.344230">
						<ele>210</ele>
						<time>2020-04-23T17:25:17Z</time>
					</trkpt>
					<trkpt lat="46.484320" lon="5.344250">
						<ele>210</ele>
						<time>2020-04-23T17:25:44Z</time>
					</trkpt>
					<trkpt lat="46.484130" lon="5.344240">
						<ele>210</ele>
						<time>2020-04-23T17:26:09Z</time>
					</trkpt>
					<trkpt lat="46.483840" lon="5.344150">
						<ele>210</ele>
						<time>2020-04-23T17:26:49Z</time>
					</trkpt>
					<trkpt lat="46.483720" lon="5.344140">
						<ele>210</ele>
						<time>2020-04-23T17:27:05Z</time>
					</trkpt>
					<trkpt lat="46.483590" lon="5.344150">
						<ele>211</ele>
						<time>2020-04-23T17:27:22Z</time>
					</trkpt>
					<trkpt lat="46.483370" lon="5.344230">
						<ele>212</ele>
						<time>2020-04-23T17:27:52Z</time>
					</trkpt>
					<trkpt lat="46.483260" lon="5.344330">
						<ele>213</ele>
						<time>2020-04-23T17:28:10Z</time>
					</trkpt>
					<trkpt lat="46.482860" lon="5.344880">
						<ele>215</ele>
						<time>2020-04-23T17:29:23Z</time>
					</trkpt>
					<trkpt lat="46.482650" lon="5.345130">
						<ele>215</ele>
						<time>2020-04-23T17:30:00Z</time>
					</trkpt>
					<trkpt lat="46.482590" lon="5.345160">
						<ele>214</ele>
						<time>2020-04-23T17:30:08Z</time>
					</trkpt>
					<trkpt lat="46.482510" lon="5.345180">
						<ele>214</ele>
						<time>2020-04-23T17:30:19Z</time>
					</trkpt>
					<trkpt lat="46.481930" lon="5.345120">
						<ele>215</ele>
						<time>2020-04-23T17:31:36Z</time>
					</trkpt>
					<trkpt lat="46.481500" lon="5.345090">
						<ele>215</ele>
						<time>2020-04-23T17:32:34Z</time>
					</trkpt>
					<trkpt lat="46.481150" lon="5.345020">
						<ele>214</ele>
						<time>2020-04-23T17:33:21Z</time>
					</trkpt>
					<trkpt lat="46.481170" lon="5.344860">
						<ele>213</ele>
						<time>2020-04-23T17:33:36Z</time>
					</trkpt>
					<trkpt lat="46.481220" lon="5.343440">
						<ele>215</ele>
						<time>2020-04-23T17:35:47Z</time>
					</trkpt>
					<trkpt lat="46.481300" lon="5.342530">
						<ele>215</ele>
						<time>2020-04-23T17:37:11Z</time>
					</trkpt>
					<trkpt lat="46.481310" lon="5.342280">
						<ele>215</ele>
						<time>2020-04-23T17:37:34Z</time>
					</trkpt>
					<trkpt lat="46.481300" lon="5.341450">
						<ele>213</ele>
						<time>2020-04-23T17:38:50Z</time>
					</trkpt>
					<trkpt lat="46.481290" lon="5.341230">
						<ele>212</ele>
						<time>2020-04-23T17:39:10Z</time>
					</trkpt>
					<trkpt lat="46.481270" lon="5.341030">
						<ele>211</ele>
						<time>2020-04-23T17:39:29Z</time>
					</trkpt>
					<trkpt lat="46.481240" lon="5.340770">
						<ele>211</ele>
						<time>2020-04-23T17:39:53Z</time>
					</trkpt>
					<trkpt lat="46.481240" lon="5.340420">
						<ele>212</ele>
						<time>2020-04-23T17:40:25Z</time>
					</trkpt>
					<trkpt lat="46.481240" lon="5.340130">
						<ele>212</ele>
						<time>2020-04-23T17:40:52Z</time>
					</trkpt>
					<trkpt lat="46.481260" lon="5.339970">
						<ele>213</ele>
						<time>2020-04-23T17:41:07Z</time>
					</trkpt>
					<trkpt lat="46.481310" lon="5.339830">
						<ele>212</ele>
						<time>2020-04-23T17:41:22Z</time>
					</trkpt>
					<trkpt lat="46.481350" lon="5.339720">
						<ele>212</ele>
						<time>2020-04-23T17:41:33Z</time>
					</trkpt>
					<trkpt lat="46.481430" lon="5.339620">
						<ele>212</ele>
						<time>2020-04-23T17:41:47Z</time>
					</trkpt>
					<trkpt lat="46.481520" lon="5.339510">
						<ele>211</ele>
						<time>2020-04-23T17:42:03Z</time>
					</trkpt>
					<trkpt lat="46.481730" lon="5.339330">
						<ele>210</ele>
						<time>2020-04-23T17:42:35Z</time>
					</trkpt>
					<trkpt lat="46.481820" lon="5.339280">
						<ele>210</ele>
						<time>2020-04-23T17:42:48Z</time>
					</trkpt>
					<trkpt lat="46.481920" lon="5.339160">
						<ele>210</ele>
						<time>2020-04-23T17:43:05Z</time>
					</trkpt>
					<trkpt lat="46.481920" lon="5.339080">
						<ele>210</ele>
						<time>2020-04-23T17:43:13Z</time>
					</trkpt>
					<trkpt lat="46.481870" lon="5.338950">
						<ele>209</ele>
						<time>2020-04-23T17:43:26Z</time>
					</trkpt>
					<trkpt lat="46.481750" lon="5.338880">
						<ele>209</ele>
						<time>2020-04-23T17:43:44Z</time>
					</trkpt>
					<trkpt lat="46.481500" lon="5.338660">
						<ele>212</ele>
						<time>2020-04-23T17:44:23Z</time>
					</trkpt>
					<trkpt lat="46.481310" lon="5.338440">
						<ele>214</ele>
						<time>2020-04-23T17:44:55Z</time>
					</trkpt>
					<trkpt lat="46.481060" lon="5.338220">
						<ele>217</ele>
						<time>2020-04-23T17:45:34Z</time>
					</trkpt>
					<trkpt lat="46.480990" lon="5.338220">
						<ele>218</ele>
						<time>2020-04-23T17:45:44Z</time>
					</trkpt>
					<trkpt lat="46.480950" lon="5.338040">
						<ele>218</ele>
						<time>2020-04-23T17:46:01Z</time>
					</trkpt>
					<trkpt lat="46.480860" lon="5.337870">
						<ele>219</ele>
						<time>2020-04-23T17:46:21Z</time>
					</trkpt>
					<trkpt lat="46.480760" lon="5.337780">
						<ele>220</ele>
						<time>2020-04-23T17:46:36Z</time>
					</trkpt>
					<trkpt lat="46.480700" lon="5.337760">
						<ele>220</ele>
						<time>2020-04-23T17:46:45Z</time>
					</trkpt>
					<trkpt lat="46.480640" lon="5.337710">
						<ele>220</ele>
						<time>2020-04-23T17:46:54Z</time>
					</trkpt>
					<trkpt lat="46.480600" lon="5.337650">
						<ele>220</ele>
						<time>2020-04-23T17:47:01Z</time>
					</trkpt>
					<trkpt lat="46.480360" lon="5.337350">
						<ele>220</ele>
						<time>2020-04-23T17:47:44Z</time>
					</trkpt>
					<trkpt lat="46.480260" lon="5.337190">
						<ele>220</ele>
						<time>2020-04-23T17:48:04Z</time>
					</trkpt>
					<trkpt lat="46.480070" lon="5.337210">
						<ele>220</ele>
						<time>2020-04-23T17:48:29Z</time>
					</trkpt>
					<trkpt lat="46.479490" lon="5.337770">
						<ele>221</ele>
						<time>2020-04-23T17:50:02Z</time>
					</trkpt>
					<trkpt lat="46.478560" lon="5.338420">
						<ele>223</ele>
						<time>2020-04-23T17:52:20Z</time>
					</trkpt>
					<trkpt lat="46.477730" lon="5.338650">
						<ele>228</ele>
						<time>2020-04-23T17:54:12Z</time>
					</trkpt>
					<trkpt lat="46.476930" lon="5.338950">
						<ele>231</ele>
						<time>2020-04-23T17:56:03Z</time>
					</trkpt>
					<trkpt lat="46.476620" lon="5.339060">
						<ele>232</ele>
						<time>2020-04-23T17:56:45Z</time>
					</trkpt>
					<trkpt lat="46.476380" lon="5.337250">
						<ele>229</ele>
						<time>2020-04-23T17:59:35Z</time>
					</trkpt>
					<trkpt lat="46.476220" lon="5.336790">
						<ele>227</ele>
						<time>2020-04-23T18:00:22Z</time>
					</trkpt>
					<trkpt lat="46.475290" lon="5.335220">
						<ele>224</ele>
						<time>2020-04-23T18:03:32Z</time>
					</trkpt>
					<trkpt lat="46.474970" lon="5.334570">
						<ele>224</ele>
						<time>2020-04-23T18:04:46Z</time>
					</trkpt>
					<trkpt lat="46.474850" lon="5.334170">
						<ele>224</ele>
						<time>2020-04-23T18:05:26Z</time>
					</trkpt>
					<trkpt lat="46.474150" lon="5.328830">
						<ele>215</ele>
						<time>2020-04-23T18:13:45Z</time>
					</trkpt>
					<trkpt lat="46.474100" lon="5.328860">
						<ele>215</ele>
						<time>2020-04-23T18:13:53Z</time>
					</trkpt>
					<trkpt lat="46.473750" lon="5.329140">
						<ele>215</ele>
						<time>2020-04-23T18:14:46Z</time>
					</trkpt>
					<trkpt lat="46.473370" lon="5.329350">
						<ele>215</ele>
						<time>2020-04-23T18:15:40Z</time>
					</trkpt>
					<trkpt lat="46.473110" lon="5.329440">
						<ele>214</ele>
						<time>2020-04-23T18:16:16Z</time>
					</trkpt>
					<trkpt lat="46.472980" lon="5.329520">
						<ele>214</ele>
						<time>2020-04-23T18:16:35Z</time>
					</trkpt>
					<trkpt lat="46.472850" lon="5.329640">
						<ele>215</ele>
						<time>2020-04-23T18:16:55Z</time>
					</trkpt>
					<trkpt lat="46.472700" lon="5.329720">
						<ele>215</ele>
						<time>2020-04-23T18:17:17Z</time>
					</trkpt>
					<trkpt lat="46.472600" lon="5.329810">
						<ele>216</ele>
						<time>2020-04-23T18:17:32Z</time>
					</trkpt>
					<trkpt lat="46.472460" lon="5.329910">
						<ele>217</ele>
						<time>2020-04-23T18:17:53Z</time>
					</trkpt>
					<trkpt lat="46.472290" lon="5.330000">
						<ele>216</ele>
						<time>2020-04-23T18:18:17Z</time>
					</trkpt>
					<trkpt lat="46.472230" lon="5.330010">
						<ele>215</ele>
						<time>2020-04-23T18:18:25Z</time>
					</trkpt>
					<trkpt lat="46.472190" lon="5.330030">
						<ele>215</ele>
						<time>2020-04-23T18:18:31Z</time>
					</trkpt>
					<trkpt lat="46.471970" lon="5.330040">
						<ele>213</ele>
						<time>2020-04-23T18:19:00Z</time>
					</trkpt>
					<trkpt lat="46.471900" lon="5.330060">
						<ele>213</ele>
						<time>2020-04-23T18:19:10Z</time>
					</trkpt>
					<trkpt lat="46.471620" lon="5.330230">
						<ele>212</ele>
						<time>2020-04-23T18:19:50Z</time>
					</trkpt>
					<trkpt lat="46.471210" lon="5.330430">
						<ele>212</ele>
						<time>2020-04-23T18:20:48Z</time>
					</trkpt>
					<trkpt lat="46.470770" lon="5.330630">
						<ele>212</ele>
						<time>2020-04-23T18:21:50Z</time>
					</trkpt>
					<trkpt lat="46.470540" lon="5.330740">
						<ele>212</ele>
						<time>2020-04-23T18:22:22Z</time>
					</trkpt>
					<trkpt lat="46.470410" lon="5.330810">
						<ele>212</ele>
						<time>2020-04-23T18:22:40Z</time>
					</trkpt>
					<trkpt lat="46.470270" lon="5.330930">
						<ele>213</ele>
						<time>2020-04-23T18:23:02Z</time>
					</trkpt>
					<trkpt lat="46.470160" lon="5.331060">
						<ele>213</ele>
						<time>2020-04-23T18:23:21Z</time>
					</trkpt>
					<trkpt lat="46.469910" lon="5.331430">
						<ele>215</ele>
						<time>2020-04-23T18:24:09Z</time>
					</trkpt>
					<trkpt lat="46.469570" lon="5.331940">
						<ele>215</ele>
						<time>2020-04-23T18:25:14Z</time>
					</trkpt>
					<trkpt lat="46.469510" lon="5.332020">
						<ele>215</ele>
						<time>2020-04-23T18:25:25Z</time>
					</trkpt>
					<trkpt lat="46.469440" lon="5.332080">
						<ele>215</ele>
						<time>2020-04-23T18:25:36Z</time>
					</trkpt>
					<trkpt lat="46.469220" lon="5.332210">
						<ele>213</ele>
						<time>2020-04-23T18:26:07Z</time>
					</trkpt>
					<trkpt lat="46.468810" lon="5.332390">
						<ele>213</ele>
						<time>2020-04-23T18:27:04Z</time>
					</trkpt>
					<trkpt lat="46.468380" lon="5.332570">
						<ele>213</ele>
						<time>2020-04-23T18:28:04Z</time>
					</trkpt>
					<trkpt lat="46.468190" lon="5.332630">
						<ele>213</ele>
						<time>2020-04-23T18:28:30Z</time>
					</trkpt>
					<trkpt lat="46.467890" lon="5.332790">
						<ele>214</ele>
						<time>2020-04-23T18:29:13Z</time>
					</trkpt>
					<trkpt lat="46.467520" lon="5.333030">
						<ele>214</ele>
						<time>2020-04-23T18:30:07Z</time>
					</trkpt>
					<trkpt lat="46.467380" lon="5.333110">
						<ele>214</ele>
						<time>2020-04-23T18:30:27Z</time>
					</trkpt>
					<trkpt lat="46.467210" lon="5.333160">
						<ele>213</ele>
						<time>2020-04-23T18:30:50Z</time>
					</trkpt>
					<trkpt lat="46.467020" lon="5.333180">
						<ele>212</ele>
						<time>2020-04-23T18:31:16Z</time>
					</trkpt>
					<trkpt lat="46.467140" lon="5.332480">
						<ele>212</ele>
						<time>2020-04-23T18:32:22Z</time>
					</trkpt>
					<trkpt lat="46.467130" lon="5.332040">
						<ele>213</ele>
						<time>2020-04-23T18:33:02Z</time>
					</trkpt>
					<trkpt lat="46.467090" lon="5.331730">
						<ele>214</ele>
						<time>2020-04-23T18:33:31Z</time>
					</trkpt>
					<trkpt lat="46.467060" lon="5.331190">
						<ele>214</ele>
						<time>2020-04-23T18:34:21Z</time>
					</trkpt>
					<trkpt lat="46.466880" lon="5.331190">
						<ele>214</ele>
						<time>2020-04-23T18:34:45Z</time>
					</trkpt>
					<trkpt lat="46.466690" lon="5.331220">
						<ele>214</ele>
						<time>2020-04-23T18:35:11Z</time>
					</trkpt>
					<trkpt lat="46.466460" lon="5.331290">
						<ele>214</ele>
						<time>2020-04-23T18:35:42Z</time>
					</trkpt>
					<trkpt lat="46.466120" lon="5.331460">
						<ele>214</ele>
						<time>2020-04-23T18:36:30Z</time>
					</trkpt>
					<trkpt lat="46.465940" lon="5.331620">
						<ele>213</ele>
						<time>2020-04-23T18:36:58Z</time>
					</trkpt>
					<trkpt lat="46.465820" lon="5.331750">
						<ele>213</ele>
						<time>2020-04-23T18:37:18Z</time>
					</trkpt>
					<trkpt lat="46.465640" lon="5.332060">
						<ele>212</ele>
						<time>2020-04-23T18:37:55Z</time>
					</trkpt>
					<trkpt lat="46.465180" lon="5.332860">
						<ele>213</ele>
						<time>2020-04-23T18:39:31Z</time>
					</trkpt>
					<trkpt lat="46.464790" lon="5.333670">
						<ele>214</ele>
						<time>2020-04-23T18:41:02Z</time>
					</trkpt>
					<trkpt lat="46.464690" lon="5.333950">
						<ele>214</ele>
						<time>2020-04-23T18:41:31Z</time>
					</trkpt>
					<trkpt lat="46.464420" lon="5.335020">
						<ele>213</ele>
						<time>2020-04-23T18:43:16Z</time>
					</trkpt>
					<trkpt lat="46.464380" lon="5.335220">
						<ele>215</ele>
						<time>2020-04-23T18:43:35Z</time>
					</trkpt>
					<trkpt lat="46.464360" lon="5.335440">
						<ele>216</ele>
						<time>2020-04-23T18:43:55Z</time>
					</trkpt>
					<trkpt lat="46.464360" lon="5.335840">
						<ele>218</ele>
						<time>2020-04-23T18:44:32Z</time>
					</trkpt>
					<trkpt lat="46.464350" lon="5.335990">
						<ele>218</ele>
						<time>2020-04-23T18:44:46Z</time>
					</trkpt>
					<trkpt lat="46.464330" lon="5.336080">
						<ele>219</ele>
						<time>2020-04-23T18:44:55Z</time>
					</trkpt>
					<trkpt lat="46.464110" lon="5.336600">
						<ele>223</ele>
						<time>2020-04-23T18:45:51Z</time>
					</trkpt>
					<trkpt lat="46.463990" lon="5.336780">
						<ele>223</ele>
						<time>2020-04-23T18:46:14Z</time>
					</trkpt>
					<trkpt lat="46.463850" lon="5.336950">
						<ele>223</ele>
						<time>2020-04-23T18:46:38Z</time>
					</trkpt>
					<trkpt lat="46.463520" lon="5.337490">
						<ele>225</ele>
						<time>2020-04-23T18:47:44Z</time>
					</trkpt>
					<trkpt lat="46.462960" lon="5.338430">
						<ele>227</ele>
						<time>2020-04-23T18:49:39Z</time>
					</trkpt>
					<trkpt lat="46.462810" lon="5.338710">
						<ele>229</ele>
						<time>2020-04-23T18:50:11Z</time>
					</trkpt>
					<trkpt lat="46.462730" lon="5.338880">
						<ele>231</ele>
						<time>2020-04-23T18:50:30Z</time>
					</trkpt>
					<trkpt lat="46.462710" lon="5.339020">
						<ele>232</ele>
						<time>2020-04-23T18:50:43Z</time>
					</trkpt>
					<trkpt lat="46.462720" lon="5.339320">
						<ele>233</ele>
						<time>2020-04-23T18:51:11Z</time>
					</trkpt>
					<trkpt lat="46.462780" lon="5.339970">
						<ele>233</ele>
						<time>2020-04-23T18:52:11Z</time>
					</trkpt>
					<trkpt lat="46.462750" lon="5.340170">
						<ele>233</ele>
						<time>2020-04-23T18:52:30Z</time>
					</trkpt>
					<trkpt lat="46.462680" lon="5.340350">
						<ele>234</ele>
						<time>2020-04-23T18:52:49Z</time>
					</trkpt>
					<trkpt lat="46.462380" lon="5.340940">
						<ele>238</ele>
						<time>2020-04-23T18:53:56Z</time>
					</trkpt>
					<trkpt lat="46.462270" lon="5.341220">
						<ele>239</ele>
						<time>2020-04-23T18:54:26Z</time>
					</trkpt>
					<trkpt lat="46.462160" lon="5.341660">
						<ele>240</ele>
						<time>2020-04-23T18:55:09Z</time>
					</trkpt>
					<trkpt lat="46.462120" lon="5.341780">
						<ele>240</ele>
						<time>2020-04-23T18:55:21Z</time>
					</trkpt>
					<trkpt lat="46.462020" lon="5.341960">
						<ele>241</ele>
						<time>2020-04-23T18:55:43Z</time>
					</trkpt>
					<trkpt lat="46.461870" lon="5.342140">
						<ele>242</ele>
						<time>2020-04-23T18:56:09Z</time>
					</trkpt>
					<trkpt lat="46.461810" lon="5.342270">
						<ele>243</ele>
						<time>2020-04-23T18:56:23Z</time>
					</trkpt>
					<trkpt lat="46.461750" lon="5.342400">
						<ele>243</ele>
						<time>2020-04-23T18:56:37Z</time>
					</trkpt>
					<trkpt lat="46.461750" lon="5.342530">
						<ele>242</ele>
						<time>2020-04-23T18:56:49Z</time>
					</trkpt>
					<trkpt lat="46.461770" lon="5.342790">
						<ele>241</ele>
						<time>2020-04-23T18:57:13Z</time>
					</trkpt>
					<trkpt lat="46.461720" lon="5.343000">
						<ele>241</ele>
						<time>2020-04-23T18:57:34Z</time>
					</trkpt>
					<trkpt lat="46.461250" lon="5.344100">
						<ele>243</ele>
						<time>2020-04-23T18:59:33Z</time>
					</trkpt>
					<trkpt lat="46.461250" lon="5.344270">
						<ele>245</ele>
						<time>2020-04-23T18:59:48Z</time>
					</trkpt>
					<trkpt lat="46.461310" lon="5.344590">
						<ele>248</ele>
						<time>2020-04-23T19:00:19Z</time>
					</trkpt>
					<trkpt lat="46.461370" lon="5.344810">
						<ele>250</ele>
						<time>2020-04-23T19:00:41Z</time>
					</trkpt>
					<trkpt lat="46.461450" lon="5.344960">
						<ele>251</ele>
						<time>2020-04-23T19:00:58Z</time>
					</trkpt>
					<trkpt lat="46.461570" lon="5.345100">
						<ele>253</ele>
						<time>2020-04-23T19:01:19Z</time>
					</trkpt>
					<trkpt lat="46.461670" lon="5.345180">
						<ele>254</ele>
						<time>2020-04-23T19:01:34Z</time>
					</trkpt>
					<trkpt lat="46.462120" lon="5.345400">
						<ele>254</ele>
						<time>2020-04-23T19:02:37Z</time>
					</trkpt>
					<trkpt lat="46.462380" lon="5.345460">
						<ele>253</ele>
						<time>2020-04-23T19:03:12Z</time>
					</trkpt>
					<trkpt lat="46.462450" lon="5.345510">
						<ele>253</ele>
						<time>2020-04-23T19:03:23Z</time>
					</trkpt>
					<trkpt lat="46.462510" lon="5.345580">
						<ele>254</ele>
						<time>2020-04-23T19:03:33Z</time>
					</trkpt>
					<trkpt lat="46.462590" lon="5.345380">
						<ele>250</ele>
						<time>2020-04-23T19:03:54Z</time>
					</trkpt>
					<trkpt lat="46.462840" lon="5.345440">
						<ele>249</ele>
						<time>2020-04-23T19:04:28Z</time>
					</trkpt>
					<trkpt lat="46.463500" lon="5.346070">
						<ele>249</ele>
						<time>2020-04-23T19:06:13Z</time>
					</trkpt>
					<trkpt lat="46.463610" lon="5.346210">
						<ele>249</ele>
						<time>2020-04-23T19:06:33Z</time>
					</trkpt>
					<trkpt lat="46.464000" lon="5.346760">
						<ele>250</ele>
						<time>2020-04-23T19:07:46Z</time>
					</trkpt>
					<trkpt lat="46.464040" lon="5.347030">
						<ele>250</ele>
						<time>2020-04-23T19:08:11Z</time>
					</trkpt>
					<trkpt lat="46.463950" lon="5.347130">
						<ele>251</ele>
						<time>2020-04-23T19:08:26Z</time>
					</trkpt>
					<trkpt lat="46.463790" lon="5.347260">
						<ele>251</ele>
						<time>2020-04-23T19:08:51Z</time>
					</trkpt>
					<trkpt lat="46.463420" lon="5.347080">
						<ele>253</ele>
						<time>2020-04-23T19:09:43Z</time>
					</trkpt>
					<trkpt lat="46.463200" lon="5.347000">
						<ele>254</ele>
						<time>2020-04-23T19:10:13Z</time>
					</trkpt>
					<trkpt lat="46.463110" lon="5.347040">
						<ele>253</ele>
						<time>2020-04-23T19:10:25Z</time>
					</trkpt>
					<trkpt lat="46.463040" lon="5.347170">
						<ele>252</ele>
						<time>2020-04-23T19:10:41Z</time>
					</trkpt>
					<trkpt lat="46.463210" lon="5.347310">
						<ele>251</ele>
						<time>2020-04-23T19:11:07Z</time>
					</trkpt>
					<trkpt lat="46.463430" lon="5.347450">
						<ele>251</ele>
						<time>2020-04-23T19:11:39Z</time>
					</trkpt>
					<trkpt lat="46.463580" lon="5.347610">
						<ele>249</ele>
						<time>2020-04-23T19:12:04Z</time>
					</trkpt>
					<trkpt lat="46.463630" lon="5.347750">
						<ele>248</ele>
						<time>2020-04-23T19:12:18Z</time>
					</trkpt>
					<trkpt lat="46.463720" lon="5.348030">
						<ele>245</ele>
						<time>2020-04-23T19:12:46Z</time>
					</trkpt>
					<trkpt lat="46.464030" lon="5.349090">
						<ele>238</ele>
						<time>2020-04-23T19:14:32Z</time>
					</trkpt>
					<trkpt lat="46.464140" lon="5.349410">
						<ele>237</ele>
						<time>2020-04-23T19:15:05Z</time>
					</trkpt>
					<trkpt lat="46.464230" lon="5.349650">
						<ele>236</ele>
						<time>2020-04-23T19:15:30Z</time>
					</trkpt>
					<trkpt lat="46.464360" lon="5.349800">
						<ele>237</ele>
						<time>2020-04-23T19:15:52Z</time>
					</trkpt>
					<trkpt lat="46.464770" lon="5.350000">
						<ele>237</ele>
						<time>2020-04-23T19:16:50Z</time>
					</trkpt>
					<trkpt lat="46.464900" lon="5.350150">
						<ele>239</ele>
						<time>2020-04-23T19:17:12Z</time>
					</trkpt>
					<trkpt lat="46.465230" lon="5.350550">
						<ele>242</ele>
						<time>2020-04-23T19:18:10Z</time>
					</trkpt>
					<trkpt lat="46.465310" lon="5.350740">
						<ele>243</ele>
						<time>2020-04-23T19:18:30Z</time>
					</trkpt>
					<trkpt lat="46.465320" lon="5.350930">
						<ele>244</ele>
						<time>2020-04-23T19:18:48Z</time>
					</trkpt>
					<trkpt lat="46.465300" lon="5.351180">
						<ele>246</ele>
						<time>2020-04-23T19:19:11Z</time>
					</trkpt>
					<trkpt lat="46.465060" lon="5.352050">
						<ele>254</ele>
						<time>2020-04-23T19:20:37Z</time>
					</trkpt>
					<trkpt lat="46.464890" lon="5.353090">
						<ele>255</ele>
						<time>2020-04-23T19:22:15Z</time>
					</trkpt>
					<trkpt lat="46.464730" lon="5.354430">
						<ele>258</ele>
						<time>2020-04-23T19:24:20Z</time>
					</trkpt>
					<trkpt lat="46.464730" lon="5.354730">
						<ele>259</ele>
						<time>2020-04-23T19:24:48Z</time>
					</trkpt>
					<trkpt lat="46.464820" lon="5.355610">
						<ele>261</ele>
						<time>2020-04-23T19:26:10Z</time>
					</trkpt>
					<trkpt lat="46.464820" lon="5.355860">
						<ele>262</ele>
						<time>2020-04-23T19:26:33Z</time>
					</trkpt>
					<trkpt lat="46.464610" lon="5.356570">
						<ele>262</ele>
						<time>2020-04-23T19:27:44Z</time>
					</trkpt>
					<trkpt lat="46.464330" lon="5.357470">
						<ele>267</ele>
						<time>2020-04-23T19:29:14Z</time>
					</trkpt>
					<trkpt lat="46.464300" lon="5.357650">
						<ele>270</ele>
						<time>2020-04-23T19:29:31Z</time>
					</trkpt>
					<trkpt lat="46.464900" lon="5.357720">
						<ele>268</ele>
						<time>2020-04-23T19:30:52Z</time>
					</trkpt>
					<trkpt lat="46.465290" lon="5.357820">
						<ele>266</ele>
						<time>2020-04-23T19:31:45Z</time>
					</trkpt>
					<trkpt lat="46.466070" lon="5.358210">
						<ele>262</ele>
						<time>2020-04-23T19:33:35Z</time>
					</trkpt>
					<trkpt lat="46.466660" lon="5.358450">
						<ele>264</ele>
						<time>2020-04-23T19:34:56Z</time>
					</trkpt>
					<trkpt lat="46.466740" lon="5.358190">
						<ele>263</ele>
						<time>2020-04-23T19:35:23Z</time>
					</trkpt>
					</trkseg>
				</trk>
			</gpx>